createdAt,value
2019-01-17T00:00:47.759Z,83.64
2019-01-17T00:03:36.126Z,83.58
2019-01-17T00:06:44.860Z,83.62
2019-01-17T00:09:33.269Z,83.68
2019-01-17T00:12:43.155Z,83.38
2019-01-17T00:18:15.579Z,83.35
2019-01-17T00:21:04.032Z,83.37
2019-01-17T00:23:52.372Z,83.53
2019-01-17T00:26:40.962Z,83.60
2019-01-17T00:29:29.325Z,83.60
2019-01-17T00:32:17.662Z,83.52
2019-01-17T00:35:06.109Z,83.46
2019-01-17T00:40:45.449Z,83.32
2019-01-17T00:43:33.965Z,83.39
2019-01-17T00:46:22.869Z,83.37
2019-01-17T00:49:11.540Z,83.21
2019-01-17T00:52:00.451Z,83.21
2019-01-17T00:54:48.825Z,83.14
2019-01-17T00:57:37.136Z,83.21
2019-01-17T01:03:40.822Z,83.22
2019-01-17T01:06:29.120Z,83.61
2019-01-17T01:09:17.435Z,84.27
2019-01-17T01:12:05.779Z,84.42
2019-01-17T01:14:55.176Z,84.14
2019-01-17T01:17:54.629Z,84.02
2019-01-17T01:26:27.312Z,84.92
2019-01-17T01:32:09.818Z,85.22
2019-01-17T01:34:56.960Z,85.56
2019-01-17T01:37:45.346Z,86.17
2019-01-17T01:40:33.644Z,86.45
2019-01-17T01:43:22.368Z,86.72
2019-01-17T01:46:35.013Z,86.51
2019-01-17T01:49:23.559Z,86.51
2019-01-17T02:00:10.112Z,84.35
2019-01-17T02:02:51.397Z,84.02
2019-01-17T02:05:21.191Z,84.36
2019-01-17T02:07:50.733Z,84.81
2019-01-17T02:10:20.247Z,85.01
2019-01-17T02:12:49.724Z,84.42
2019-01-17T02:15:19.226Z,84.39
2019-01-17T02:17:48.653Z,84.79
2019-01-17T02:20:18.096Z,84.96
2019-01-17T02:22:47.513Z,85.22
2019-01-17T02:25:16.928Z,84.72
2019-01-17T02:27:46.393Z,85.00
2019-01-17T02:30:16.264Z,84.18
2019-01-17T02:32:45.623Z,83.57
2019-01-17T02:35:15.183Z,83.03
2019-01-17T02:37:44.620Z,82.46
2019-01-17T02:40:14.453Z,82.31
2019-01-17T02:42:43.970Z,82.58
2019-01-17T02:45:15.043Z,82.91
2019-01-17T02:47:44.754Z,83.31
2019-01-17T02:50:14.311Z,83.74
2019-01-17T02:52:43.884Z,83.82
2019-01-17T02:55:13.444Z,84.29
2019-01-17T02:57:43.080Z,84.39
2019-01-17T03:03:35.483Z,84.17
2019-01-17T03:06:04.920Z,84.45
2019-01-17T03:08:53.719Z,84.39
2019-01-17T03:11:23.144Z,84.39
2019-01-17T03:13:52.579Z,84.37
2019-01-17T03:16:41.075Z,85.05
2019-01-17T03:19:21.935Z,84.55
2019-01-17T03:21:51.564Z,84.55
2019-01-17T03:24:43.044Z,84.54
2019-01-17T03:27:22.863Z,84.08
2019-01-17T03:29:53.414Z,84.08
2019-01-17T03:32:22.820Z,82.92
2019-01-17T03:34:52.362Z,81.37
2019-01-17T03:37:41.514Z,81.75
2019-01-17T03:40:30.230Z,81.19
2019-01-17T03:42:59.904Z,81.19
2019-01-17T03:45:48.970Z,81.28
2019-01-17T03:51:12.042Z,80.94
2019-01-17T03:54:01.135Z,80.45
2019-01-17T03:56:30.780Z,80.45
2019-01-17T03:59:00.436Z,79.95
2019-01-17T04:01:30.162Z,79.86
2019-01-17T04:04:01.085Z,79.86
2019-01-17T04:06:30.694Z,79.87
2019-01-17T04:09:19.223Z,79.17
2019-01-17T04:11:50.640Z,79.17
2019-01-17T04:17:08.673Z,79.12
2019-01-17T04:19:59.247Z,78.80
2019-01-17T04:22:28.792Z,79.05
2019-01-17T04:24:58.238Z,79.37
2019-01-17T04:27:27.767Z,79.67
2019-01-17T04:29:57.578Z,79.77
2019-01-17T04:32:27.075Z,79.77
2019-01-17T04:35:00.254Z,78.90
2019-01-17T04:37:50.086Z,78.58
2019-01-17T04:40:19.619Z,78.54
2019-01-17T04:43:08.375Z,77.88
2019-01-17T04:45:38.024Z,77.88
2019-01-17T04:48:07.558Z,77.42
2019-01-17T04:53:15.779Z,77.74
2019-01-17T04:55:57.450Z,78.15
2019-01-17T05:01:28.949Z,76.89
2019-01-17T05:04:01.811Z,77.50
2019-01-17T05:06:53.612Z,77.78
2019-01-17T05:09:23.118Z,77.77
2019-01-17T05:11:52.592Z,77.85
2019-01-17T05:17:18.796Z,77.27
2019-01-17T05:19:36.533Z,77.35
2019-01-17T05:24:54.474Z,77.53
2019-01-17T05:27:24.708Z,77.03
2019-01-17T05:30:13.139Z,76.82
2019-01-17T05:32:42.665Z,76.78
2019-01-17T05:35:12.234Z,76.90
2019-01-17T05:40:40.711Z,77.54
2019-01-17T05:43:10.173Z,76.56
2019-01-17T05:45:39.673Z,75.46
2019-01-17T05:48:09.330Z,75.19
2019-01-17T05:50:40.827Z,75.20
2019-01-17T05:53:10.240Z,75.03
2019-01-17T05:55:39.946Z,75.63
2019-01-17T06:00:50.977Z,76.33
2019-01-17T06:03:20.648Z,76.50
2019-01-17T06:05:50.046Z,76.72
2019-01-17T06:08:19.555Z,75.57
2019-01-17T06:11:07.987Z,75.68
2019-01-17T06:13:37.588Z,76.13
2019-01-17T06:16:07.407Z,76.69
2019-01-17T06:18:36.878Z,77.27
2019-01-17T06:21:06.452Z,77.73
2019-01-17T06:23:35.961Z,77.08
2019-01-17T06:26:05.509Z,76.97
2019-01-17T06:28:35.085Z,76.93
2019-01-17T06:31:23.636Z,77.13
2019-01-17T06:33:53.354Z,77.07
2019-01-17T06:36:22.819Z,77.44
2019-01-17T06:38:52.315Z,77.12
2019-01-17T06:41:56.567Z,77.12
2019-01-17T06:44:05.258Z,77.40
2019-01-17T06:49:27.045Z,77.83
2019-01-17T06:51:56.469Z,78.22
2019-01-17T06:54:32.108Z,78.62
2019-01-17T06:57:39.595Z,78.38
2019-01-17T07:00:07.822Z,78.26
2019-01-17T07:02:38.762Z,78.16
2019-01-17T07:05:28.767Z,78.17
2019-01-17T07:08:01.108Z,78.61
2019-01-17T07:10:52.178Z,78.65
2019-01-17T07:13:35.679Z,78.76
2019-01-17T07:16:24.224Z,78.60
2019-01-17T07:18:53.700Z,78.22
2019-01-17T07:24:08.816Z,78.09
2019-01-17T07:29:25.356Z,78.03
2019-01-17T07:37:17.974Z,78.04
2019-01-17T07:40:08.066Z,78.26
2019-01-17T07:45:32.965Z,78.36
2019-01-17T07:48:02.550Z,78.52
2019-01-17T07:50:41.964Z,78.18
2019-01-17T07:53:11.374Z,78.68
2019-01-17T07:55:47.454Z,78.65
2019-01-17T07:58:12.443Z,78.46
2019-01-17T08:00:53.329Z,78.63
2019-01-17T08:03:23.121Z,78.68
2019-01-17T08:09:10.262Z,78.98
2019-01-17T08:12:05.187Z,79.36
2019-01-17T08:14:34.543Z,79.29
2019-01-17T08:17:04.039Z,79.37
2019-01-17T08:19:36.798Z,78.92
2019-01-17T08:22:09.145Z,78.94
2019-01-17T08:24:38.835Z,78.96
2019-01-17T08:27:19.599Z,78.36
2019-01-17T08:30:09.777Z,77.96
2019-01-17T08:32:58.469Z,77.68
2019-01-17T08:35:29.388Z,77.54
2019-01-17T08:38:18.111Z,77.35
2019-01-17T08:40:47.597Z,77.31
2019-01-17T08:43:21.526Z,77.39
2019-01-17T08:46:11.464Z,77.41
2019-01-17T08:49:02.791Z,77.44
2019-01-17T08:51:33.430Z,76.92
2019-01-17T08:54:19.734Z,76.62
2019-01-17T08:56:55.497Z,77.26
2019-01-17T09:02:20.369Z,77.61
2019-01-17T09:05:09.715Z,77.77
2019-01-17T09:07:42.718Z,77.89
2019-01-17T09:10:15.486Z,78.46
2019-01-17T09:12:44.995Z,78.64
2019-01-17T09:15:33.980Z,79.21
2019-01-17T09:18:03.486Z,79.49
2019-01-17T09:20:37.856Z,79.85
2019-01-17T09:23:07.355Z,80.24
2019-01-17T09:25:37.324Z,80.62
2019-01-17T09:28:07.340Z,80.23
2019-01-17T09:30:36.954Z,80.67
2019-01-17T09:33:34.473Z,80.75
2019-01-17T09:39:18.781Z,81.18
2019-01-17T09:41:57.181Z,81.40
2019-01-17T09:44:26.914Z,81.85
2019-01-17T09:46:56.340Z,82.11
2019-01-17T09:49:46.099Z,82.34
2019-01-17T09:52:16.113Z,81.94
2019-01-17T09:54:49.068Z,81.28
2019-01-17T09:57:38.138Z,81.42
2019-01-17T10:00:11.355Z,81.56
2019-01-17T10:02:41.097Z,81.86
2019-01-17T10:05:10.916Z,82.17
2019-01-17T10:07:49.492Z,82.34
2019-01-17T10:10:38.307Z,82.50
2019-01-17T10:13:08.120Z,82.51
2019-01-17T10:19:19.077Z,82.40
2019-01-17T10:24:58.397Z,82.37
2019-01-17T10:28:02.279Z,82.82
2019-01-17T10:31:09.733Z,83.27
2019-01-17T10:37:32.979Z,82.99
2019-01-17T10:40:40.663Z,82.90
2019-01-17T10:43:21.749Z,82.75
2019-01-17T10:46:34.282Z,82.31
2019-01-17T10:49:30.468Z,82.03
2019-01-17T10:52:37.912Z,81.86
2019-01-17T10:55:45.379Z,82.49
2019-01-17T10:58:36.488Z,82.62
2019-01-17T11:01:48.141Z,82.71
2019-01-17T11:08:09.811Z,83.22
2019-01-17T11:11:17.838Z,83.23
2019-01-17T11:17:56.024Z,83.06
2019-01-17T11:21:03.543Z,83.01
2019-01-17T11:24:10.936Z,82.78
2019-01-17T11:27:21.142Z,82.65
2019-01-17T11:30:19.416Z,82.50
2019-01-17T11:33:32.744Z,82.38
2019-01-17T11:36:57.893Z,82.02
2019-01-17T11:42:49.301Z,81.99
2019-01-17T11:45:41.695Z,82.20
2019-01-17T11:48:33.803Z,82.45
2019-01-17T11:51:32.386Z,82.09
2019-01-17T11:54:27.472Z,81.84
2019-01-17T11:57:34.988Z,81.96
2019-01-17T12:00:42.514Z,82.07
2019-01-17T12:03:50.250Z,82.25
2019-01-17T12:06:19.717Z,82.19
2019-01-17T12:08:49.163Z,82.42
2019-01-17T12:11:18.910Z,82.45
2019-01-17T12:16:23.038Z,83.09
2019-01-17T12:18:52.781Z,82.95
2019-01-17T12:21:41.229Z,82.94
2019-01-17T12:24:10.923Z,83.20
2019-01-17T12:27:00.835Z,83.10
2019-01-17T12:32:06.597Z,82.66
2019-01-17T12:34:36.395Z,82.58
2019-01-17T12:37:06.102Z,82.42
2019-01-17T12:39:59.860Z,82.27
2019-01-17T12:42:29.386Z,82.02
2019-01-17T12:44:59.124Z,82.04
2019-01-17T12:47:30.930Z,81.92
2019-01-17T12:50:19.993Z,81.82
2019-01-17T12:53:09.902Z,81.37
2019-01-17T12:55:39.478Z,81.15
2019-01-17T12:58:16.338Z,81.04
2019-01-17T13:00:46.008Z,80.44
2019-01-17T13:03:44.799Z,80.37
2019-01-17T13:06:34.908Z,80.03
2019-01-17T13:09:06.532Z,79.51
2019-01-17T13:11:36.470Z,79.32
2019-01-17T13:14:08.595Z,79.66
2019-01-17T13:16:40.811Z,79.47
2019-01-17T13:19:10.410Z,78.99
2019-01-17T13:21:40.162Z,78.87
2019-01-17T13:24:09.798Z,78.11
2019-01-17T13:27:00.766Z,78.24
2019-01-17T13:29:49.947Z,78.03
2019-01-17T13:32:58.425Z,77.93
2019-01-17T13:35:46.827Z,77.90
2019-01-17T13:38:16.704Z,77.75
2019-01-17T13:41:05.440Z,77.56
2019-01-17T13:43:34.899Z,77.97
2019-01-17T13:46:11.076Z,77.42
2019-01-17T13:48:40.689Z,77.13
2019-01-17T13:51:10.539Z,77.23
2019-01-17T13:56:57.445Z,77.70
2019-01-17T13:59:38.023Z,77.52
2019-01-17T14:02:11.863Z,77.55
2019-01-17T14:04:41.392Z,77.35
2019-01-17T14:07:10.844Z,77.10
2019-01-17T14:09:40.506Z,77.04
2019-01-17T14:12:10.030Z,77.20
2019-01-17T14:15:02.101Z,77.11
2019-01-17T14:20:26.453Z,76.85
2019-01-17T14:22:56.382Z,76.77
2019-01-17T14:25:26.503Z,76.28
2019-01-17T14:27:56.270Z,75.64
2019-01-17T14:30:55.391Z,75.74
2019-01-17T14:33:36.122Z,75.86
2019-01-17T14:36:08.916Z,76.02
2019-01-17T14:38:38.349Z,76.60
2019-01-17T14:41:08.059Z,76.14
2019-01-17T14:43:37.562Z,76.31
2019-01-17T14:46:07.141Z,76.73
2019-01-17T14:51:13.013Z,76.83
2019-01-17T14:53:42.549Z,77.06
2019-01-17T14:56:12.025Z,76.56
2019-01-17T14:59:00.541Z,77.06
2019-01-17T15:01:47.574Z,77.28
2019-01-17T15:07:19.346Z,77.70
2019-01-17T15:09:48.969Z,77.53
2019-01-17T15:12:18.457Z,77.53
2019-01-17T15:14:47.979Z,77.97
2019-01-17T15:17:17.460Z,77.91
2019-01-17T15:28:10.603Z,77.94
2019-01-17T15:30:52.058Z,78.20
2019-01-17T15:33:33.740Z,77.95
2019-01-17T15:36:07.636Z,77.89
2019-01-17T15:38:39.233Z,77.65
2019-01-17T15:41:08.876Z,77.90
2019-01-17T15:43:38.743Z,77.68
2019-01-17T15:49:15.778Z,77.37
2019-01-17T15:54:35.477Z,77.22
2019-01-17T15:57:05.163Z,77.53
2019-01-17T15:59:34.819Z,77.53
2019-01-17T16:02:23.367Z,76.71
2019-01-17T16:05:16.468Z,77.32
2019-01-17T16:10:22.053Z,76.73
2019-01-17T16:12:51.543Z,76.93
2019-01-17T16:15:23.406Z,77.18
2019-01-17T16:17:55.469Z,77.10
2019-01-17T16:20:45.822Z,77.33
2019-01-17T16:23:25.087Z,77.50
2019-01-17T16:25:54.523Z,76.91
2019-01-17T16:28:27.943Z,76.98
2019-01-17T16:30:57.667Z,77.27
2019-01-17T16:33:27.154Z,77.41
2019-01-17T16:36:07.588Z,77.60
2019-01-17T16:38:57.642Z,77.13
2019-01-17T16:41:27.178Z,77.04
2019-01-17T16:43:56.979Z,77.30
2019-01-17T16:46:26.486Z,77.01
2019-01-17T16:51:31.899Z,76.59
2019-01-17T16:54:02.138Z,76.44
2019-01-17T16:56:31.747Z,75.81
2019-01-17T16:59:04.335Z,75.45
2019-01-17T17:01:34.081Z,75.37
2019-01-17T17:04:03.807Z,75.38
2019-01-17T17:06:33.430Z,75.89
2019-01-17T17:09:21.813Z,75.87
2019-01-17T17:11:51.691Z,75.83
2019-01-17T17:14:21.196Z,75.47
2019-01-17T17:16:50.795Z,75.07
2019-01-17T17:19:20.822Z,75.06
2019-01-17T17:21:51.831Z,75.10
2019-01-17T17:24:21.451Z,74.62
2019-01-17T17:26:50.899Z,75.03
2019-01-17T17:29:42.629Z,74.98
2019-01-17T17:32:32.811Z,75.19
2019-01-17T17:35:22.794Z,75.21
2019-01-17T17:37:59.982Z,75.33
2019-01-17T17:40:31.550Z,75.83
2019-01-17T17:45:51.464Z,75.33
2019-01-17T17:48:20.938Z,74.98
2019-01-17T17:50:50.420Z,74.69
2019-01-17T17:53:20.010Z,75.17
2019-01-17T17:56:08.576Z,75.72
2019-01-17T17:58:38.141Z,75.32
2019-01-17T18:06:45.238Z,76.16
2019-01-17T18:09:33.996Z,76.63
2019-01-17T18:12:15.875Z,76.79
2019-01-17T18:14:45.369Z,76.86
2019-01-17T18:17:14.960Z,77.29
2019-01-17T18:19:44.737Z,77.16
2019-01-17T18:22:14.122Z,77.05
2019-01-17T18:24:43.576Z,77.06
2019-01-17T18:27:13.281Z,77.22
2019-01-17T18:29:42.715Z,77.54
2019-01-17T18:32:12.209Z,77.85
2019-01-17T18:34:42.155Z,78.13
2019-01-17T18:40:03.472Z,78.42
2019-01-17T18:42:34.947Z,78.59
2019-01-17T18:45:24.882Z,78.70
2019-01-17T18:47:54.738Z,78.76
2019-01-17T18:50:26.933Z,79.00
2019-01-17T18:53:15.507Z,79.22
2019-01-17T18:55:45.580Z,79.23
2019-01-17T18:58:15.608Z,79.43
2019-01-17T19:00:46.484Z,79.53
2019-01-17T19:03:16.023Z,79.59
2019-01-17T19:05:47.896Z,79.71
2019-01-17T19:08:17.391Z,79.65
2019-01-17T19:10:49.911Z,79.67
2019-01-17T19:13:19.070Z,79.80
2019-01-17T19:15:53.222Z,79.73
2019-01-17T19:18:22.722Z,79.90
2019-01-17T19:20:52.163Z,80.04
2019-01-17T19:23:21.785Z,80.11
2019-01-17T19:25:54.547Z,80.18
2019-01-17T19:28:24.135Z,80.48
2019-01-17T19:30:53.890Z,80.75
2019-01-17T19:33:23.392Z,80.81
2019-01-17T19:36:14.707Z,80.81
2019-01-17T19:38:44.596Z,80.94
2019-01-17T19:41:34.777Z,81.04
2019-01-17T19:47:19.021Z,81.32
2019-01-17T19:49:48.993Z,81.53
2019-01-17T19:52:39.074Z,81.79
2019-01-17T19:55:28.065Z,81.77
2019-01-17T19:58:08.499Z,81.86
2019-01-17T20:00:59.186Z,81.85
2019-01-17T20:03:29.245Z,82.01
2019-01-17T20:05:59.031Z,82.06
2019-01-17T20:08:28.667Z,82.05
2019-01-17T20:10:58.451Z,82.11
2019-01-17T20:13:28.269Z,82.27
2019-01-17T20:15:57.873Z,82.29
2019-01-17T20:18:27.476Z,82.42
2019-01-17T20:26:48.524Z,82.96
2019-01-17T20:29:21.299Z,83.20
2019-01-17T20:31:50.817Z,83.43
2019-01-17T20:34:20.504Z,83.51
2019-01-17T20:36:49.980Z,83.43
2019-01-17T20:39:19.577Z,83.45
2019-01-17T20:41:51.941Z,83.54
2019-01-17T20:44:21.404Z,83.52
2019-01-17T20:47:10.200Z,83.49
2019-01-17T20:49:40.035Z,83.18
2019-01-17T20:52:09.887Z,83.16
2019-01-17T20:54:39.628Z,83.34
2019-01-17T20:57:13.196Z,83.14
2019-01-17T20:59:42.591Z,83.11
2019-01-17T21:02:18.366Z,83.35
2019-01-17T21:05:06.752Z,83.29
2019-01-17T21:07:36.926Z,83.36
2019-01-17T21:10:07.951Z,83.37
2019-01-17T21:12:37.782Z,83.40
2019-01-17T21:15:41.895Z,83.42
2019-01-17T21:17:59.823Z,83.10
2019-01-17T21:20:31.109Z,82.82
2019-01-17T21:23:21.143Z,82.74
2019-01-17T21:25:50.738Z,83.04
2019-01-17T21:28:20.395Z,83.24
2019-01-17T21:31:01.499Z,83.32
2019-01-17T21:33:38.045Z,83.56
2019-01-17T21:36:10.549Z,83.38
2019-01-17T21:38:41.847Z,83.29
2019-01-17T21:44:20.253Z,83.32
2019-01-17T21:46:49.911Z,83.28
2019-01-17T21:49:38.457Z,83.12
2019-01-17T21:52:10.825Z,83.17
2019-01-17T21:54:40.255Z,82.98
2019-01-17T22:00:16.306Z,83.21
2019-01-17T22:02:55.639Z,83.30
2019-01-17T22:05:26.938Z,83.56
2019-01-17T22:07:56.848Z,83.57
2019-01-17T22:10:26.473Z,83.40
2019-01-17T22:15:37.328Z,84.35
2019-01-17T22:18:18.389Z,84.44
2019-01-17T22:20:48.057Z,84.78
2019-01-17T22:23:36.537Z,85.15
2019-01-17T22:26:08.769Z,85.51
2019-01-17T22:28:38.338Z,86.00
2019-01-17T22:31:08.063Z,86.25
2019-01-17T22:33:57.971Z,85.93
2019-01-17T22:36:46.472Z,86.07
2019-01-17T22:39:15.979Z,85.97
2019-01-17T22:41:45.502Z,85.88
2019-01-17T22:44:15.348Z,85.70
2019-01-17T22:46:58.969Z,85.79
2019-01-17T22:49:16.205Z,85.71
2019-01-17T22:51:45.693Z,85.41
2019-01-17T22:54:34.463Z,85.33
2019-01-17T22:57:15.207Z,85.33
2019-01-17T22:59:45.359Z,84.99
2019-01-17T23:02:15.163Z,84.89
2019-01-17T23:04:44.572Z,84.70
2019-01-17T23:07:14.168Z,84.61
2019-01-17T23:09:43.667Z,84.67
2019-01-17T23:12:13.153Z,84.99
2019-01-17T23:14:42.886Z,85.25
2019-01-17T23:17:12.290Z,85.74
2019-01-17T23:19:41.721Z,85.99
2019-01-17T23:22:11.135Z,86.25
2019-01-17T23:24:40.563Z,86.62
2019-01-17T23:27:10.262Z,86.82
2019-01-17T23:29:39.676Z,87.06
2019-01-17T23:34:57.937Z,87.05
2019-01-17T23:37:27.459Z,87.10
2019-01-17T23:40:17.320Z,87.02
2019-01-17T23:42:54.123Z,86.75
2019-01-17T23:45:42.959Z,86.58
2019-01-17T23:48:40.518Z,86.42
2019-01-17T23:51:10.037Z,86.35
2019-01-17T23:53:39.492Z,86.16
2019-01-17T23:58:58.083Z,85.96
